Αρχική σελίδα
METAR-TAF:

METAR-TAF

Αεροδρόμια :

Διεθνής Αερολιμένας Λάρνακας

Λάρνακα, Κύπρος

γεωγραφικό πλάτος: 34-53N, γεωγραφικό μήκος: 033-38E, υψόμετρο: 2 μ

Παρών καιρός

Η αναφορά έγινε 13 λεπτά πριν, στις 23:30 UTC
Άνεμος 5 kt από Δ/BΔ
Θερμοκρασία 20°C
Υγρασία 78%
Πίεση 1014 hPa
Ορατότητα 10 χλμ και άνω
Λίγα νέφη σε ύψος 2500 πόδια

METAR: LCLK 212330Z 29005KT 9999 FEW025 20/16 Q1014 NOSIG

Χρόνος: 02:43 (23:43 UTC)

Πρόγνωση Καιρού

Η αναφορά έγινε 13 λεπτά πριν, στις 23:30 UTC
Η πρόγνωση ισχύει από τις 22 στις 00 UTC έως τις 22 στις 24 UTC
Άνεμος 6 kt από
Ορατότητα 10 χλμ και άνω
Λίγα νέφη σε ύψος 2500 πόδια
Καθιστάμενος
από 22 στις 08 UTC έως τις 22 στις 11 UTC
Άνεμος 12 kt από ΝA
Καθιστάμενος
από 22 στις 16 UTC έως τις 22 στις 18 UTC
Άνεμος 8 kt από Β/BA

TAF: LCLK 212330Z 2200/2224 32006KT 9999 FEW025 BECMG 2208/2211 13012KT BECMG 2216/2218 02008KT

Μετεωρολογικές αναφορές και προγνώσεις για περισσότερα από 4000 αεροδρόμια (δελτία METAR και TAF).

Οι διαθέσιμοι σταθμοί απεικονίζονται στο χάρτη με κίτρινες και κόκκινες κουκκίδες.

Μετακινήστε το ποντίκι πάνω από τις κουκκίδες για να δείτε το όνομα του σταθμού.

Στη συνέχεια, κάντε κλικ για να δείτε τις μετεωρολογικές αναφορές και τις προγνώσεις καιρού.

Για να αλλάξετε το χάρτη: κάντε κλικ στα πράσινα κουμπιά με τον μαύρο σταυρό για να ζουμάρετε, στο πράσινο κουμπί με την παύλα για να αφαιρέσετε το ζουμ ή στα πράσινα βέλη για να αντιπαραβάλλετε χάρτες.


METAR-TAF: